createdAt,value
2017-12-14T00:15:14.040Z,91.33
2017-12-14T00:35:48.382Z,91.63
2017-12-14T00:56:22.735Z,92.10
2017-12-14T01:16:58.163Z,89.68
2017-12-14T01:37:33.279Z,91.11
2017-12-14T01:58:07.325Z,91.56
2017-12-14T02:18:43.854Z,92.16
2017-12-14T02:39:20.630Z,91.04
2017-12-14T02:59:55.334Z,90.02
2017-12-14T03:20:30.569Z,86.87
2017-12-14T03:41:03.370Z,84.74
2017-12-14T04:01:37.721Z,82.02
2017-12-14T04:22:14.235Z,77.75
2017-12-14T04:42:48.264Z,76.01
2017-12-14T05:03:24.456Z,77.86
2017-12-14T05:23:58.498Z,74.75
2017-12-14T05:44:34.695Z,74.83
2017-12-14T06:05:09.042Z,74.88
2017-12-14T06:25:44.314Z,75.10
2017-12-14T06:46:20.199Z,76.54
2017-12-14T07:06:54.859Z,76.33
2017-12-14T07:27:33.324Z,78.44
2017-12-14T07:48:10.318Z,81.53
2017-12-14T08:08:43.436Z,83.25
2017-12-14T08:29:18.755Z,82.63
2017-12-14T08:49:53.983Z,82.54
2017-12-14T09:10:29.250Z,80.59
2017-12-14T09:31:03.301Z,81.37
2017-12-14T09:51:35.495Z,80.43
2017-12-14T10:12:05.851Z,79.17
2017-12-14T10:32:45.114Z,78.86
2017-12-14T10:53:19.461Z,77.75
2017-12-14T11:13:55.351Z,79.98
2017-12-14T11:52:30.445Z,85.07
2017-12-14T12:13:06.951Z,85.98
2017-12-14T12:33:38.842Z,86.73
2017-12-14T12:54:13.191Z,87.13
2017-12-14T13:14:52.456Z,87.93
2017-12-14T13:35:29.265Z,86.96
2017-12-14T13:56:00.850Z,88.86
2017-12-14T14:16:36.121Z,88.90
2017-12-14T14:37:10.473Z,88.23
2017-12-14T14:57:47.582Z,89.52
2017-12-14T15:18:20.706Z,88.26
2017-12-14T15:38:55.052Z,88.96
2017-12-14T15:59:30.484Z,86.76
2017-12-14T16:20:04.371Z,87.68
2017-12-14T16:40:39.642Z,88.33
2017-12-14T17:01:16.176Z,89.11
2017-12-14T17:21:50.181Z,88.77
2017-12-14T17:42:23.305Z,88.58
2017-12-14T18:02:56.733Z,87.98
2017-12-14T18:23:30.775Z,87.82
2017-12-14T18:44:11.361Z,88.08
2017-12-14T19:04:47.159Z,87.65
2017-12-14T19:25:23.662Z,87.81
2017-12-14T19:46:00.776Z,87.95
2017-12-14T20:06:37.330Z,88.10
2017-12-14T20:27:09.529Z,88.45
2017-12-14T20:47:43.821Z,88.42
2017-12-14T21:08:18.794Z,88.22
2017-12-14T21:28:57.137Z,87.88
2017-12-14T21:49:32.468Z,87.92
2017-12-14T22:10:07.696Z,89.22
2017-12-14T22:30:39.896Z,89.75
2017-12-14T22:51:14.847Z,90.13
2017-12-14T23:11:46.124Z,90.62
2017-12-14T23:32:23.543Z,91.15
2017-12-14T23:52:56.361Z,90.11
